Time;durP1;ratioP1;P1;durP2;ratioP2;P2;SDS_P1;SDS_P2;PMS_P1;PMS_P2;Temp;Humidity;BMP_temperature;BMP_pressure;BME280_temperature;BME280_humidity;BME280_pressure;Samples;Min_cycle;Max_cycle;Signal;HPM_P1;HPM_P2
2021/05/24 00:00:09;;;;;;;4.17;3.87;;;;;;;16.77;100.00;93491.44;4955651;28;20201;-83
2021/05/24 00:02:36;;;;;;;4.53;4.03;;;;;;;16.64;100.00;93508.63;4955954;29;20247;-83
2021/05/24 00:05:04;;;;;;;5.07;4.13;;;;;;;16.54;100.00;93492.69;4956352;29;20233;-82
2021/05/24 00:07:32;;;;;;;4.23;3.83;;;;;;;16.70;100.00;93485.56;4956685;28;20564;-83
2021/05/24 00:09:59;;;;;;;4.13;3.83;;;;;;;16.68;100.00;93486.88;4956608;28;20229;-82
2021/05/24 00:12:27;;;;;;;4.77;3.50;;;;;;;16.85;100.00;93496.22;4957132;28;20205;-83
2021/05/24 00:14:53;;;;;;;4.17;3.87;;;;;;;16.73;100.00;93526.66;4956557;28;20198;-83
2021/05/24 00:17:21;;;;;;;4.97;4.57;;;;;;;16.62;100.00;93475.47;4956528;29;20260;-83
2021/05/24 00:19:48;;;;;;;4.77;4.37;;;;;;;16.68;100.00;93469.13;4956781;29;20204;-83
2021/05/24 00:22:15;;;;;;;4.37;4.07;;;;;;;16.66;100.00;93473.91;4956678;29;20217;-83
2021/05/24 00:24:43;;;;;;;4.20;3.77;;;;;;;16.67;100.00;93503.88;4956395;28;20201;-82
2021/05/24 00:27:10;;;;;;;4.40;3.67;;;;;;;16.73;100.00;93513.41;4956546;29;20559;-82
2021/05/24 00:29:37;;;;;;;4.30;4.00;;;;;;;16.64;100.00;93521.09;4956508;28;20606;-83
2021/05/24 00:32:05;;;;;;;4.60;4.20;;;;;;;16.56;100.00;93550.78;4956768;28;20256;-83
2021/05/24 00:34:31;;;;;;;5.27;3.97;;;;;;;16.32;100.00;93566.34;4956116;28;20217;-83
2021/05/24 00:36:58;;;;;;;4.53;4.13;;;;;;;16.12;100.00;93503.47;4956106;28;20209;-83
2021/05/24 00:39:25;;;;;;;4.97;4.53;;;;;;;16.27;100.00;93478.88;4956441;28;20630;-83
2021/05/24 00:41:53;;;;;;;5.17;4.33;;;;;;;16.20;100.00;93497.66;4956266;29;20295;-83
2021/05/24 00:44:22;;;;;;;4.27;3.97;;;;;;;16.03;100.00;93468.72;4956029;29;20208;-83
2021/05/24 00:46:49;;;;;;;4.70;4.30;;;;;;;15.93;100.00;93429.78;4956020;28;20564;-82
2021/05/24 00:49:16;;;;;;;4.43;3.87;;;;;;;15.80;100.00;93401.13;4955827;28;20232;-82
2021/05/24 00:51:43;;;;;;;4.23;3.83;;;;;;;15.80;100.00;93382.59;4956209;29;20215;-82
2021/05/24 00:54:09;;;;;;;4.47;4.17;;;;;;;15.83;100.00;93382.09;4955672;28;20697;-82
2021/05/24 00:56:36;;;;;;;5.50;5.00;;;;;;;15.67;100.00;93372.50;4956074;28;20263;-83
2021/05/24 00:59:04;;;;;;;4.57;4.17;;;;;;;15.73;100.00;93344.97;4955761;28;20205;-83
2021/05/24 01:01:31;;;;;;;5.00;4.70;;;;;;;15.91;100.00;93327.78;4956220;28;20208;-83
2021/05/24 01:03:58;;;;;;;4.60;4.17;;;;;;;15.93;100.00;93368.88;4955014;28;20259;-82
2021/05/24 01:06:25;;;;;;;4.77;4.37;;;;;;;16.04;100.00;93387.44;4955860;28;20209;-83
2021/05/24 01:08:52;;;;;;;4.80;4.33;;;;;;;15.66;100.00;93390.25;4955811;29;20576;-81
2021/05/24 01:11:21;;;;;;;5.77;4.60;;;;;;;15.74;100.00;93349.22;4956063;28;20205;-81
2021/05/24 01:13:48;;;;;;;4.63;4.23;;;;;;;15.80;100.00;93358.78;4955186;29;20268;-82
2021/05/24 01:16:16;;;;;;;5.00;4.60;;;;;;;15.45;100.00;93364.72;4955547;29;20588;-81
2021/05/24 01:18:43;;;;;;;4.67;4.37;;;;;;;15.79;100.00;93308.69;4955587;29;20205;-81
2021/05/24 01:21:13;;;;;;;6.20;4.53;;;;;;;15.54;100.00;93341.19;4955502;29;20232;-82
2021/05/24 01:23:40;;;;;;;5.00;4.63;;;;;;;15.50;100.00;93329.53;4955156;28;20807;-81
2021/05/24 01:26:08;;;;;;;5.23;4.73;;;;;;;15.58;100.00;93284.81;4955486;28;20209;-82
2021/05/24 01:28:35;;;;;;;4.80;4.40;;;;;;;15.54;100.00;93290.91;4955262;29;20204;-81
2021/05/24 01:31:02;;;;;;;5.23;4.83;;;;;;;15.77;100.00;93260.53;4955320;29;20210;-82
2021/05/24 01:33:30;;;;;;;4.67;4.27;;;;;;;15.99;100.00;93265.56;4954903;28;20208;-81
2021/05/24 01:35:57;;;;;;;4.53;4.13;;;;;;;15.91;100.00;93288.84;4955273;29;20212;-81
2021/05/24 01:38:24;;;;;;;7.07;4.67;;;;;;;15.84;100.00;93309.50;4955022;29;20752;-82
2021/05/24 01:40:51;;;;;;;5.30;4.83;;;;;;;15.76;100.00;93311.88;4955488;29;20229;-82
2021/05/24 01:43:19;;;;;;;4.97;4.00;;;;;;;15.83;100.00;93285.91;4954876;29;20212;-81
2021/05/24 01:45:47;;;;;;;4.57;4.17;;;;;;;15.69;100.00;93299.69;4954960;29;20338;-82
2021/05/24 01:48:14;;;;;;;6.33;5.03;;;;;;;15.92;100.00;93305.53;4954809;28;20200;-81
2021/05/24 01:50:41;;;;;;;7.87;5.33;;;;;;;15.91;100.00;93352.44;4954951;29;20713;-81
2021/05/24 01:53:08;;;;;;;5.37;4.87;;;;;;;16.05;100.00;93354.56;4954721;29;20695;-81
2021/05/24 01:55:36;;;;;;;5.50;5.00;;;;;;;15.89;100.00;93374.91;4955001;29;20208;-81
2021/05/24 01:58:03;;;;;;;4.90;4.50;;;;;;;15.74;100.00;93340.47;4954630;28;20215;-82
2021/05/24 02:00:30;;;;;;;5.73;4.67;;;;;;;15.85;100.00;93364.06;4955318;28;20196;-81
2021/05/24 02:02:57;;;;;;;5.67;4.60;;;;;;;15.92;100.00;93364.59;4954310;28;20195;-82
2021/05/24 02:05:26;;;;;;;4.73;4.30;;;;;;;15.69;100.00;93402.97;4954477;29;20197;-81
2021/05/24 02:07:53;;;;;;;5.40;4.63;;;;;;;15.65;100.00;93408.97;4954883;28;20236;-81
2021/05/24 02:10:23;;;;;;;5.30;4.90;;;;;;;15.54;100.00;93423.25;4954768;28;20252;-82
2021/05/24 02:12:51;;;;;;;4.53;4.13;;;;;;;15.40;100.00;93394.59;4954475;29;20263;-81
2021/05/24 02:15:21;;;;;;;4.10;3.80;;;;;;;15.33;100.00;93380.03;4953894;28;20204;-81
2021/05/24 02:17:48;;;;;;;4.87;4.30;;;;;;;15.33;100.00;93362.28;4954223;28;20239;-81
2021/05/24 02:20:18;;;;;;;7.70;5.27;;;;;;;15.39;100.00;93361.25;4954654;28;20224;-82
2021/05/24 02:22:45;;;;;;;5.37;4.97;;;;;;;15.38;100.00;93372.13;4954627;29;20204;-82
2021/05/24 02:25:13;;;;;;;4.67;4.37;;;;;;;15.55;100.00;93362.13;4954058;28;20270;-81
2021/05/24 02:27:40;;;;;;;5.17;4.77;;;;;;;15.63;100.00;93351.00;4953970;28;20205;-81
2021/05/24 02:30:10;;;;;;;5.23;4.73;;;;;;;15.73;100.00;93355.56;4954168;28;20234;-81
2021/05/24 02:32:37;;;;;;;5.03;4.60;;;;;;;15.79;100.00;93366.97;4954270;29;20207;-81
2021/05/24 02:35:05;;;;;;;5.60;5.10;;;;;;;15.74;100.00;93385.50;4954064;29;20209;-81
2021/05/24 02:37:32;;;;;;;5.17;4.67;;;;;;;15.82;100.00;93391.06;4954199;29;20206;-81
2021/05/24 02:39:59;;;;;;;5.77;5.03;;;;;;;15.60;100.00;93415.06;4953996;28;20706;-81
2021/05/24 02:42:25;;;;;;;8.50;4.87;;;;;;;15.56;100.00;93411.34;4954116;28;20651;-81
2021/05/24 02:44:52;;;;;;;4.70;4.30;;;;;;;15.75;100.00;93387.88;4953739;28;20669;-81
2021/05/24 02:47:20;;;;;;;4.47;4.17;;;;;;;15.59;100.00;93433.88;4954064;28;20220;-81
2021/05/24 02:49:47;;;;;;;6.47;4.77;;;;;;;15.54;100.00;93444.41;4953787;28;20702;-81
2021/05/24 02:52:14;;;;;;;4.50;4.13;;;;;;;15.37;100.00;93448.03;4954238;28;20258;-82
2021/05/24 02:54:41;;;;;;;4.90;4.50;;;;;;;15.17;100.00;93467.25;4953804;28;20213;-81
2021/05/24 02:57:08;;;;;;;9.00;5.33;;;;;;;15.23;100.00;93433.69;4954270;28;20242;-81
2021/05/24 02:59:35;;;;;;;5.37;4.83;;;;;;;15.42;100.00;93432.19;4953687;28;20201;-85
2021/05/24 03:02:02;;;;;;;5.80;5.13;;;;;;;15.25;100.00;93430.78;4953871;28;20199;-84
2021/05/24 03:04:31;;;;;;;6.13;4.73;;;;;;;15.42;100.00;93420.81;4953557;29;20629;-84
2021/05/24 03:06:58;;;;;;;4.90;4.40;;;;;;;15.50;100.00;93446.00;4954210;29;20200;-84
2021/05/24 03:09:25;;;;;;;5.97;5.13;;;;;;;15.48;100.00;93479.84;4954032;28;20355;-83
2021/05/24 03:11:52;;;;;;;4.97;4.60;;;;;;;15.34;100.00;93493.53;4953994;28;20203;-84
2021/05/24 03:14:19;;;;;;;5.87;5.27;;;;;;;15.20;100.00;93501.13;4954042;29;20270;-84
2021/05/24 03:16:45;;;;;;;5.50;5.00;;;;;;;15.34;100.00;93482.94;4953850;28;20200;-84
2021/05/24 03:19:12;;;;;;;5.97;5.20;;;;;;;15.12;100.00;93514.03;4953540;28;20206;-83
2021/05/24 03:21:43;;;;;;;5.60;5.20;;;;;;;15.26;100.00;93486.09;4953708;29;20219;-84
2021/05/24 03:24:10;;;;;;;9.30;6.67;;;;;;;15.05;100.00;93521.41;4953669;29;20202;-84
2021/05/24 03:26:37;;;;;;;6.27;5.67;;;;;;;15.41;100.00;93503.91;4953957;28;20233;-84
2021/05/24 03:29:04;;;;;;;6.07;5.57;;;;;;;15.44;100.00;93521.91;4956787;28;20204;-84
2021/05/24 03:31:31;;;;;;;5.80;5.30;;;;;;;15.49;100.00;93524.59;4958086;28;20568;-84
2021/05/24 03:33:58;;;;;;;5.93;5.40;;;;;;;15.27;100.00;93543.25;4957789;28;20210;-84
2021/05/24 03:36:25;;;;;;;17.70;13.20;;;;;;;15.37;100.00;93522.13;4957824;28;20573;-84
2021/05/24 03:39:16;;;;;;;10.77;9.67;;;;;;;15.51;100.00;93516.41;4955587;28;20203;-86
2021/05/24 03:41:44;;;;;;;11.50;9.63;;;;;;;15.56;100.00;93522.53;4957770;28;20203;-85
2021/05/24 03:44:14;;;;;;;14.50;9.40;;;;;;;15.59;100.00;93529.19;4957305;28;20205;-85
2021/05/24 03:46:41;;;;;;;10.20;9.40;;;;;;;15.65;100.00;93533.41;4957331;29;20242;-85
2021/05/24 03:49:08;;;;;;;10.93;7.33;;;;;;;15.68;100.00;93549.63;4957209;29;20204;-84
2021/05/24 03:51:35;;;;;;;7.77;7.07;;;;;;;15.54;100.00;93566.19;4957255;29;20205;-85
2021/05/24 03:54:02;;;;;;;7.57;6.87;;;;;;;15.56;100.00;93564.88;4957080;28;20201;-85
2021/05/24 03:56:29;;;;;;;8.10;6.80;;;;;;;15.53;100.00;93561.97;4957064;29;20208;-84
2021/05/24 03:58:56;;;;;;;6.80;6.13;;;;;;;15.44;100.00;93572.22;4957015;29;20197;-84
2021/05/24 04:01:23;;;;;;;7.50;6.43;;;;;;;15.57;100.00;93544.50;4957260;28;20299;-85
2021/05/24 04:03:51;;;;;;;6.77;5.83;;;;;;;15.55;100.00;93539.47;4956760;28;20251;-84
2021/05/24 04:06:18;;;;;;;6.27;5.73;;;;;;;15.58;100.00;93536.28;4956774;29;20236;-84
2021/05/24 04:08:47;;;;;;;8.67;6.13;;;;;;;15.56;100.00;93534.97;4956762;28;20204;-84
2021/05/24 04:11:14;;;;;;;6.23;5.70;;;;;;;15.55;100.00;93507.72;4956846;28;20729;-85
2021/05/24 04:13:51;;;;;;;6.87;5.97;;;;;;;15.64;100.00;93494.78;4956763;29;20204;-85
2021/05/24 04:16:18;;;;;;;6.57;5.97;;;;;;;15.61;100.00;93474.09;4956935;28;20191;-84
2021/05/24 04:18:47;;;;;;;5.23;4.77;;;;;;;15.66;100.00;93467.03;4956593;28;20209;-85
2021/05/24 04:21:14;;;;;;;6.53;5.93;;;;;;;15.65;100.00;93468.03;4956846;29;20200;-85
2021/05/24 04:23:41;;;;;;;11.90;10.70;;;;;;;15.84;100.00;93470.25;4956445;29;20263;-84
2021/05/24 04:26:08;;;;;;;18.23;16.23;;;;;;;16.05;100.00;93502.94;4956654;28;20204;-84
2021/05/24 04:28:36;;;;;;;10.07;9.07;;;;;;;16.08;100.00;93555.41;4956534;28;20203;-84
2021/05/24 04:31:04;;;;;;;5.83;5.33;;;;;;;16.13;100.00;93600.44;4956669;28;20228;-84
2021/05/24 04:33:30;;;;;;;11.23;9.37;;;;;;;16.22;100.00;93645.81;4956466;28;20201;-84
2021/05/24 04:35:58;;;;;;;6.10;5.30;;;;;;;16.27;100.00;93682.94;4956461;28;20220;-84
2021/05/24 04:38:25;;;;;;;6.30;5.73;;;;;;;16.34;100.00;93717.97;4955815;28;20205;-84
2021/05/24 04:40:53;;;;;;;3.70;3.40;;;;;;;16.59;100.00;93791.53;4956234;29;20208;-84
2021/05/24 04:43:22;;;;;;;5.03;3.90;;;;;;;16.84;100.00;93900.50;4956252;28;20296;-84
2021/05/24 04:45:49;;;;;;;4.17;3.17;;;;;;;16.93;100.00;94024.72;4956250;29;20201;-84
2021/05/24 04:48:17;;;;;;;3.70;3.17;;;;;;;17.11;100.00;94122.53;4956349;28;20267;-84
2021/05/24 04:50:43;;;;;;;3.13;2.83;;;;;;;17.28;100.00;94217.97;4956123;28;20228;-84
2021/05/24 04:53:10;;;;;;;3.10;2.80;;;;;;;17.39;100.00;94301.19;4956079;29;20208;-84
2021/05/24 04:55:37;;;;;;;5.73;2.83;;;;;;;17.52;100.00;94343.31;4956120;28;20201;-84
2021/05/24 04:58:06;;;;;;;4.57;3.40;;;;;;;17.49;100.00;94389.78;4956205;28;20208;-85
2021/05/24 05:00:33;;;;;;;4.70;2.93;;;;;;;17.61;100.00;94436.66;4956542;28;20567;-85
2021/05/24 05:03:00;;;;;;;3.40;3.07;;;;;;;17.69;100.00;94484.84;4955972;28;20676;-84
2021/05/24 05:05:28;;;;;;;3.13;2.87;;;;;;;17.83;100.00;94522.50;4955752;29;20232;-85
2021/05/24 05:07:55;;;;;;;3.70;2.83;;;;;;;17.98;100.00;94538.69;4956194;28;20586;-84
2021/05/24 05:10:22;;;;;;;4.67;3.03;;;;;;;18.01;100.00;94562.09;4956049;28;20233;-85
2021/05/24 05:12:49;;;;;;;3.87;2.70;;;;;;;18.04;100.00;94568.75;4955763;29;20205;-84
2021/05/24 05:15:16;;;;;;;5.57;3.20;;;;;;;18.11;100.00;94558.75;4955995;29;20287;-85
2021/05/24 05:17:42;;;;;;;3.10;2.80;;;;;;;18.29;100.00;94574.41;4955759;28;20205;-84
2021/05/24 05:20:11;;;;;;;3.40;2.73;;;;;;;18.46;100.00;94592.13;4955665;29;20216;-84
2021/05/24 05:22:39;;;;;;;3.53;2.87;;;;;;;18.66;100.00;94600.34;4955971;28;20591;-84
2021/05/24 05:25:07;;;;;;;7.47;2.83;;;;;;;18.76;100.00;94632.44;4955745;29;20205;-84
2021/05/24 05:27:34;;;;;;;3.40;3.03;;;;;;;18.94;100.00;94681.06;4955567;28;20201;-85
2021/05/24 05:30:01;;;;;;;5.60;2.67;;;;;;;19.15;100.00;94709.53;4955594;29;20226;-85
2021/05/24 05:32:28;;;;;;;3.00;2.70;;;;;;;19.21;100.00;94718.38;4955549;28;20206;-85
2021/05/24 05:34:55;;;;;;;3.67;2.73;;;;;;;19.34;100.00;94733.19;4955391;29;20202;-85
2021/05/24 05:37:22;;;;;;;3.00;2.63;;;;;;;19.57;100.00;94742.72;4955842;29;20679;-85
2021/05/24 05:39:54;;;;;;;4.60;3.03;;;;;;;19.75;100.00;94781.59;4955435;28;20198;-85
2021/05/24 05:42:21;;;;;;;3.53;2.67;;;;;;;19.90;100.00;94822.50;4955631;29;20570;-85
2021/05/24 05:44:48;;;;;;;3.87;2.70;;;;;;;20.03;100.00;94855.19;4955345;29;20738;-85
2021/05/24 05:47:15;;;;;;;4.97;3.03;;;;;;;20.19;100.00;94892.41;4955248;28;20202;-85
2021/05/24 05:49:42;;;;;;;3.00;2.70;;;;;;;20.29;100.00;94905.03;4954948;28;20283;-85
2021/05/24 05:52:09;;;;;;;5.60;2.60;;;;;;;20.53;100.00;94926.09;4955066;29;20234;-85
2021/05/24 05:54:35;;;;;;;4.10;2.50;;;;;;;20.66;100.00;94934.47;4954883;29;20345;-85
2021/05/24 05:57:04;;;;;;;5.07;2.50;;;;;;;20.81;100.00;94947.16;4955083;29;20210;-85
2021/05/24 05:59:30;;;;;;;6.43;2.80;;;;;;;20.97;100.00;94957.97;4955203;28;20277;-85
2021/05/24 06:01:57;;;;;;;5.23;2.70;;;;;;;21.12;100.00;94998.94;4954906;28;20644;-85
2021/05/24 06:04:24;;;;;;;6.07;2.73;;;;;;;21.24;100.00;95030.84;4954744;28;20249;-85
2021/05/24 06:06:51;;;;;;;2.50;2.30;;;;;;;21.43;100.00;95078.59;4954666;29;20202;-85
2021/05/24 06:09:18;;;;;;;4.70;2.60;;;;;;;21.60;100.00;95097.97;4954880;28;20245;-85
2021/05/24 06:11:46;;;;;;;5.70;3.00;;;;;;;21.83;100.00;95116.31;4954950;29;20623;-84
2021/05/24 06:14:14;;;;;;;5.07;2.10;;;;;;;21.91;100.00;95176.56;4955127;28;20584;-85
2021/05/24 06:16:41;;;;;;;2.67;2.10;;;;;;;22.20;100.00;95174.38;4954630;29;20201;-85
2021/05/24 06:19:08;;;;;;;3.03;2.40;;;;;;;22.29;100.00;95198.78;4954728;28;20197;-85
2021/05/24 06:21:35;;;;;;;5.07;2.30;;;;;;;22.40;100.00;95231.78;4954962;28;20260;-85
2021/05/24 06:24:02;;;;;;;5.43;2.40;;;;;;;22.42;100.00;95281.31;4954505;28;20244;-83
2021/05/24 06:26:29;;;;;;;6.20;3.13;;;;;;;22.52;100.00;95285.94;4954708;28;20285;-85
2021/05/24 06:28:55;;;;;;;5.00;3.70;;;;;;;22.82;100.00;95298.72;4954535;28;20206;-88
2021/05/24 06:31:23;;;;;;;2.60;2.40;;;;;;;22.95;100.00;95298.28;4955136;28;20229;-87
2021/05/24 06:33:50;;;;;;;6.43;2.60;;;;;;;23.07;100.00;95330.25;4955017;29;20200;-86
2021/05/24 06:36:17;;;;;;;3.80;2.37;;;;;;;23.34;100.00;95429.28;4955138;28;20221;-87
2021/05/24 06:38:44;;;;;;;4.07;2.37;;;;;;;23.25;100.00;95460.34;4955403;28;20201;-87
2021/05/24 06:41:11;;;;;;;4.17;2.43;;;;;;;23.35;100.00;95456.94;4954941;29;20686;-87
2021/05/24 06:43:38;;;;;;;2.57;2.23;;;;;;;23.58;100.00;95472.59;4954622;28;20202;-85
2021/05/24 06:46:06;;;;;;;6.37;2.90;;;;;;;23.82;100.00;95482.97;4954549;28;20237;-87
2021/05/24 06:48:36;;;;;;;3.57;2.40;;;;;;;23.88;100.00;95496.16;4955106;28;20253;-88
2021/05/24 06:51:03;;;;;;;3.53;2.07;;;;;;;23.91;100.00;95527.84;4955051;29;20589;-88
2021/05/24 06:53:30;;;;;;;3.10;2.40;;;;;;;24.07;100.00;95549.38;4954694;29;20210;-87
2021/05/24 06:55:57;;;;;;;3.47;2.40;;;;;;;24.16;100.00;95521.75;4954914;28;20577;-86
2021/05/24 06:58:23;;;;;;;2.03;1.90;;;;;;;24.27;100.00;95492.28;4955023;28;20202;-88
2021/05/24 07:00:50;;;;;;;3.47;2.47;;;;;;;24.35;100.00;95522.13;4954095;29;20667;-85
2021/05/24 07:03:17;;;;;;;7.30;2.10;;;;;;;24.43;100.00;95543.13;4954184;28;20233;-87
2021/05/24 07:05:45;;;;;;;4.20;2.03;;;;;;;24.58;100.00;95541.53;4954427;29;20189;-86
2021/05/24 07:08:12;;;;;;;2.97;2.00;;;;;;;24.75;100.00;95569.00;4954343;28;20241;-87
2021/05/24 07:10:39;;;;;;;2.37;2.17;;;;;;;24.88;100.00;95556.94;4954833;28;20230;-88
2021/05/24 07:13:05;;;;;;;3.00;2.13;;;;;;;24.83;100.00;95552.34;4954652;29;20194;-88
2021/05/24 07:15:33;;;;;;;2.87;2.30;;;;;;;24.97;100.00;95552.63;4954357;28;20202;-86
2021/05/24 07:17:59;;;;;;;3.20;2.10;;;;;;;25.16;100.00;95589.81;4954268;28;20210;-85
2021/05/24 07:20:26;;;;;;;4.93;2.00;;;;;;;24.99;100.00;95631.16;4954414;28;20600;-87
2021/05/24 07:22:54;;;;;;;3.60;2.50;;;;;;;25.01;100.00;95650.50;4954432;28;20693;-87
2021/05/24 07:25:21;;;;;;;2.00;1.90;;;;;;;25.20;100.00;95653.53;4954494;29;20260;-87
2021/05/24 07:27:48;;;;;;;5.20;2.10;;;;;;;25.19;100.00;95657.31;4954779;28;20597;-87
2021/05/24 07:30:16;;;;;;;2.30;2.10;;;;;;;25.40;100.00;95651.97;4954007;28;20229;-87
2021/05/24 07:32:43;;;;;;;5.70;2.87;;;;;;;25.34;100.00;95686.91;4954392;29;20641;-87
2021/05/24 07:35:12;;;;;;;2.90;2.20;;;;;;;25.06;100.00;95712.34;4954028;28;20238;-87
2021/05/24 07:37:39;;;;;;;4.20;2.10;;;;;;;25.29;100.00;95721.88;4954426;28;20645;-86
2021/05/24 07:40:09;;;;;;;3.67;2.00;;;;;;;25.35;100.00;95722.69;4954037;28;20205;-87
2021/05/24 07:42:36;;;;;;;3.10;2.33;;;;;;;25.17;100.00;95729.34;4954105;29;20210;-87
2021/05/24 07:45:04;;;;;;;6.57;2.50;;;;;;;25.47;100.00;95722.47;4953816;29;20202;-87
2021/05/24 07:47:33;;;;;;;3.50;2.80;;;;;;;25.53;100.00;95735.66;4953896;28;20205;-85
2021/05/24 07:50:00;;;;;;;4.20;2.30;;;;;;;25.42;100.00;95809.31;4953530;28;20277;-87
2021/05/24 07:52:27;;;;;;;9.80;3.03;;;;;;;25.66;100.00;95772.00;4953803;28;20201;-86
2021/05/24 07:54:54;;;;;;;4.43;2.33;;;;;;;25.74;100.00;95808.38;4954148;28;20590;-86
2021/05/24 07:57:21;;;;;;;2.87;1.87;;;;;;;25.50;100.00;95827.66;4953789;28;20202;-87
2021/05/24 07:59:48;;;;;;;5.10;2.33;;;;;;;25.73;100.00;95759.09;4953309;29;20273;-86
2021/05/24 08:02:15;;;;;;;5.27;2.20;;;;;;;25.60;100.00;95789.22;4952565;28;20234;-89
2021/05/24 08:04:42;;;;;;;8.17;2.93;;;;;;;25.55;100.00;95802.66;4954111;29;20233;-91
2021/05/24 08:07:09;;;;;;;3.23;2.50;;;;;;;25.75;100.00;95836.88;4954533;29;20554;-89
2021/05/24 08:09:35;;;;;;;2.20;2.10;;;;;;;25.88;100.00;95841.00;4953878;28;20237;-90
2021/05/24 08:12:02;;;;;;;3.22;2.42;;;;;;;26.21;100.00;95804.69;4954122;28;20206;-90
2021/05/24 08:14:30;;;;;;;5.53;2.93;;;;;;;26.48;100.00;95850.25;4956560;28;20230;-90
2021/05/24 08:16:59;;;;;;;3.83;2.38;;;;;;;26.48;100.00;95931.09;4957817;29;20229;-91
2021/05/24 08:19:25;;;;;;;4.15;2.00;;;;;;;26.45;100.00;95939.69;4957831;28;20210;-90
2021/05/24 08:21:53;;;;;;;3.97;1.95;;;;;;;26.55;100.00;96028.66;4957641;28;20208;-91
2021/05/24 08:24:20;;;;;;;2.35;2.08;;;;;;;26.69;100.00;95970.47;4957439;28;20293;-90
2021/05/24 08:26:47;;;;;;;3.05;2.40;;;;;;;26.44;100.00;96072.78;4957467;29;20288;-90
2021/05/24 08:29:16;;;;;;;4.55;2.72;;;;;;;26.55;100.00;96093.34;4957286;29;20209;-90
2021/05/24 08:31:55;;;;;;;3.53;2.20;;;;;;;26.73;100.00;96097.44;4957089;29;20233;-90
2021/05/24 08:34:23;;;;;;;2.50;2.30;;;;;;;26.60;100.00;96185.00;4957071;28;20212;-89
2021/05/24 08:36:50;;;;;;;5.07;2.08;;;;;;;26.67;100.00;96149.72;4957214;29;20208;-92
2021/05/24 08:39:16;;;;;;;5.15;2.05;;;;;;;26.72;100.00;96206.38;4957188;28;20233;-86
2021/05/24 08:41:43;;;;;;;8.95;2.45;;;;;;;26.49;100.00;96234.53;4953154;28;20699;-90
2021/05/24 08:44:15;;;;;;;4.03;1.98;;;;;;;26.38;100.00;96249.78;4938709;29;20221;-90
2021/05/24 08:46:44;;;;;;;2.47;1.90;;;;;;;26.66;100.00;96240.56;4940879;29;20194;-87
2021/05/24 08:49:11;;;;;;;4.30;2.70;;;;;;;26.54;100.00;96267.72;4938159;28;20692;-90
2021/05/24 08:51:38;;;;;;;2.92;1.92;;;;;;;26.62;100.00;96246.75;4956725;28;20733;-87
2021/05/24 08:54:05;;;;;;;2.83;2.33;;;;;;;26.67;100.00;96338.41;4956850;28;20237;-92
2021/05/24 08:56:32;;;;;;;4.05;2.22;;;;;;;26.77;100.00;96344.69;4957016;28;20256;-93
2021/05/24 08:59:01;;;;;;;3.95;2.10;;;;;;;26.84;100.00;96311.28;4957088;29;20293;-95
2021/05/24 09:01:28;;;;;;;2.97;2.17;;;;;;;26.97;100.00;96354.00;4956941;29;20209;-93
2021/05/24 09:04:00;;;;;;;2.28;2.08;;;;;;;26.96;100.00;96361.28;4956678;28;20265;-93
2021/05/24 09:06:41;;;;;;;2.85;2.35;;;;;;;27.08;100.00;96385.34;4957209;28;20194;-92
2021/05/24 09:09:13;;;;;;;3.42;2.00;;;;;;;27.18;100.00;96390.03;4956785;28;20284;-94
2021/05/24 09:11:40;;;;;;;5.05;2.60;;;;;;;27.17;100.00;96418.09;4956708;29;20210;-91
2021/05/24 09:14:15;;;;;;;5.18;2.53;;;;;;;27.14;100.00;96470.66;4956731;29;20244;-95
2021/05/24 09:16:42;;;;;;;3.33;2.47;;;;;;;27.33;100.00;96478.34;4956967;29;20194;-94
2021/05/24 09:19:15;;;;;;;3.35;2.33;;;;;;;27.48;100.00;96430.69;4956227;28;20202;-92
2021/05/24 09:21:54;;;;;;;3.95;2.58;;;;;;;27.66;100.00;96521.22;4956854;29;20614;-91
2021/05/24 09:24:24;;;;;;;3.42;2.25;;;;;;;27.65;100.00;96465.59;4956186;28;20205;-90
2021/05/24 09:26:52;;;;;;;4.68;2.55;;;;;;;27.65;100.00;96513.38;4956400;28;20202;-91
2021/05/24 09:29:22;;;;;;;3.85;2.17;;;;;;;27.21;100.00;96560.31;4956599;29;20205;-92
2021/05/24 09:32:10;;;;;;;5.45;2.28;;;;;;;27.44;100.00;96524.06;4956183;29;20248;-92
2021/05/24 09:34:39;;;;;;;2.70;2.17;;;;;;;27.83;100.00;96566.19;4956286;29;20190;-92
2021/05/24 09:37:06;;;;;;;3.20;2.17;;;;;;;27.74;100.00;96611.72;4956269;28;20288;-94
2021/05/24 09:39:35;;;;;;;2.97;2.00;;;;;;;27.96;100.00;96612.44;4956458;28;20198;-92
2021/05/24 09:42:06;;;;;;;2.35;2.13;;;;;;;28.04;100.00;96591.41;4956304;29;20226;-92
2021/05/24 09:44:33;;;;;;;6.55;2.67;;;;;;;28.27;100.00;96598.28;4956770;29;20193;-95
2021/05/24 09:47:01;;;;;;;3.97;2.42;;;;;;;28.18;100.00;96622.28;4956171;29;20591;-92
2021/05/24 09:49:29;;;;;;;2.08;1.80;;;;;;;28.11;100.00;96679.25;4956289;28;20307;-94
2021/05/24 09:51:57;;;;;;;3.28;2.65;;;;;;;28.13;100.00;96641.19;4956090;29;20293;-91
2021/05/24 09:54:29;;;;;;;8.27;7.45;;;;;;;28.28;100.00;96684.50;4956032;28;20353;-89
2021/05/24 09:56:59;;;;;;;5.75;2.47;;;;;;;28.25;100.00;96711.25;4955607;29;20221;-87
2021/05/24 09:59:26;;;;;;;2.40;1.92;;;;;;;28.11;100.00;96711.69;4955657;29;20675;-90
2021/05/24 10:01:56;;;;;;;2.90;2.20;;;;;;;28.32;100.00;96679.41;4955934;28;20664;-90
2021/05/24 10:04:24;;;;;;;4.05;3.33;;;;;;;28.68;100.00;96685.81;4955417;28;20736;-88
2021/05/24 10:06:51;;;;;;;4.15;2.33;;;;;;;28.78;100.00;96715.63;4955845;29;20205;-89
2021/05/24 10:09:20;;;;;;;6.22;2.35;;;;;;;28.96;100.00;96748.69;4956195;29;20193;-89
2021/05/24 10:11:49;;;;;;;15.93;13.55;;;;;;;29.00;100.00;96718.19;4955331;28;20317;-89
2021/05/24 10:14:19;;;;;;;3.38;2.67;;;;;;;28.63;100.00;96765.03;4955519;29;20202;-89
2021/05/24 10:16:48;;;;;;;5.05;2.30;;;;;;;28.66;100.00;96779.94;4955677;29;20641;-89
2021/05/24 10:19:17;;;;;;;2.97;2.35;;;;;;;28.86;100.00;96749.47;4955389;28;20229;-90
2021/05/24 10:21:45;;;;;;;3.65;2.05;;;;;;;28.70;100.00;96767.50;4955336;28;20288;-89
2021/05/24 10:24:13;;;;;;;10.02;8.02;;;;;;;28.90;100.00;96745.16;4955398;28;20209;-89
2021/05/24 10:26:43;;;;;;;16.77;10.13;;;;;;;29.17;100.00;96746.94;4955270;28;20198;-89
2021/05/24 10:29:11;;;;;;;7.13;4.95;;;;;;;29.29;100.00;96772.69;4953735;28;20213;-95
2021/05/24 10:31:53;;;;;;;5.82;2.40;;;;;;;29.09;100.00;96796.94;4975880;28;20220;-94
2021/05/24 10:34:22;;;;;;;5.57;3.78;;;;;;;28.77;100.00;96799.75;4974063;28;20197;-95
2021/05/24 10:37:06;;;;;;;11.18;6.28;;;;;;;29.19;100.00;96782.66;4973950;28;20211;-95
2021/05/24 10:39:47;;;;;;;6.22;4.45;;;;;;;29.40;100.00;96773.53;4974583;28;20228;-95
2021/05/24 10:42:16;;;;;;;3.95;2.80;;;;;;;29.42;100.00;96776.78;4974186;28;20598;-94
2021/05/24 10:44:45;;;;;;;7.85;3.85;;;;;;;29.70;100.00;96804.50;4974212;28;20204;-95
2021/05/24 10:47:17;;;;;;;6.38;3.42;;;;;;;29.65;100.00;96797.19;4974202;28;20193;-93
2021/05/24 10:50:03;;;;;;;3.60;2.67;;;;;;;29.60;100.00;96794.47;4974350;28;20690;-93
2021/05/24 10:52:31;;;;;;;3.35;1.92;;;;;;;29.09;100.00;96786.94;4974315;28;20188;-94
2021/05/24 10:54:58;;;;;;;4.22;1.95;;;;;;;29.32;100.00;96755.91;4974748;28;20224;-93
2021/05/24 10:57:30;;;;;;;2.40;2.13;;;;;;;29.50;100.00;96778.97;4974296;28;20200;-95
2021/05/24 11:00:00;;;;;;;4.13;2.38;;;;;;;29.09;100.00;96786.13;4974561;28;20193;-95
2021/05/24 11:02:37;;;;;;;6.00;2.08;;;;;;;29.33;100.00;96800.84;4974183;28;20204;-93
2021/05/24 11:05:28;;;;;;;2.97;2.58;;;;;;;29.30;100.00;96811.38;4973871;28;20247;-92
2021/05/24 11:07:57;;;;;;;7.43;3.53;;;;;;;29.38;100.00;96770.28;4974018;28;20197;-92
2021/05/24 11:10:35;;;;;;;4.13;2.80;;;;;;;29.55;100.00;96797.13;4973997;28;20230;-93
2021/05/24 11:13:33;;;;;;;4.32;2.60;;;;;;;29.38;100.00;96808.19;4973977;28;20236;-93
2021/05/24 11:16:15;;;;;;;2.67;2.47;;;;;;;29.36;100.00;96778.66;4962570;28;20205;-94
2021/05/24 11:18:51;;;;;;;4.55;2.00;;;;;;;29.55;100.00;96762.75;4974027;28;20189;-95
2021/05/24 11:21:25;;;;;;;4.47;2.28;;;;;;;29.10;100.00;96769.66;4974369;28;20259;-93
2021/05/24 11:24:21;;;;;;;5.60;3.33;;;;;;;29.31;100.00;96765.13;4975639;28;20197;-94
2021/05/24 11:30:27;;;;;;;4.47;2.55;;;;;;;29.67;100.00;96797.72;4975603;28;20205;-94
2021/05/24 11:32:54;;;;;;;2.88;1.98;;;;;;;29.76;100.00;96795.31;4973943;28;20192;-94